createdAt,value
2022-09-10T00:00:48.083Z,79.58
2022-09-10T00:01:43.286Z,79.58
2022-09-10T00:02:38.631Z,79.63
2022-09-10T00:03:33.625Z,79.57
2022-09-10T00:04:28.889Z,79.55
2022-09-10T00:05:23.924Z,79.57
2022-09-10T00:06:19.330Z,79.75
2022-09-10T00:07:14.484Z,79.75
2022-09-10T00:08:09.897Z,79.81
2022-09-10T00:09:05.172Z,79.88
2022-09-10T00:10:00.403Z,80.02
2022-09-10T00:10:55.552Z,80.04
2022-09-10T00:11:50.697Z,80.09
2022-09-10T00:12:45.954Z,80.09
2022-09-10T00:13:41.208Z,80.05
2022-09-10T00:14:36.389Z,80.23
2022-09-10T00:15:31.647Z,80.32
2022-09-10T00:16:27.070Z,80.39
2022-09-10T00:17:22.095Z,80.31
2022-09-10T00:18:17.278Z,80.33
2022-09-10T00:19:12.418Z,80.26
2022-09-10T00:20:07.656Z,80.29
2022-09-10T00:21:03.075Z,80.31
2022-09-10T00:21:58.214Z,80.37
2022-09-10T00:22:53.468Z,80.37
2022-09-10T00:23:48.651Z,80.46
2022-09-10T00:24:43.922Z,80.72
2022-09-10T00:25:39.165Z,80.86
2022-09-10T00:26:34.303Z,80.85
2022-09-10T00:27:29.589Z,80.97
2022-09-10T00:28:24.732Z,81.03
2022-09-10T00:29:19.869Z,81.08
2022-09-10T00:30:15.259Z,81.15
2022-09-10T00:31:10.319Z,81.05
2022-09-10T00:32:05.424Z,81.11
2022-09-10T00:33:00.689Z,81.09
2022-09-10T00:33:55.745Z,81.08
2022-09-10T00:34:50.731Z,81.10
2022-09-10T00:35:45.842Z,81.05
2022-09-10T00:36:40.907Z,81.01
2022-09-10T00:37:36.029Z,81.07
2022-09-10T00:38:31.257Z,81.09
2022-09-10T00:39:26.116Z,81.11
2022-09-10T00:40:21.139Z,81.14
2022-09-10T00:41:16.239Z,81.19
2022-09-10T00:42:11.447Z,81.19
2022-09-10T00:43:09.702Z,81.14
2022-09-10T00:44:04.820Z,81.04
2022-09-10T00:45:00.024Z,81.09
2022-09-10T00:45:55.055Z,81.00
2022-09-10T00:46:50.064Z,81.02
2022-09-10T00:47:45.059Z,81.03
2022-09-10T00:48:40.076Z,80.90
2022-09-10T00:49:35.097Z,80.87
2022-09-10T00:50:30.127Z,80.78
2022-09-10T00:51:25.120Z,80.94
2022-09-10T00:52:20.122Z,80.78
2022-09-10T00:53:15.178Z,80.46
2022-09-10T00:54:10.363Z,80.44
2022-09-10T00:55:05.433Z,80.36
2022-09-10T00:56:00.480Z,80.40
2022-09-10T00:56:55.556Z,80.53
2022-09-10T00:57:52.439Z,80.63
2022-09-10T00:58:47.434Z,80.75
2022-09-10T00:59:42.542Z,80.85
2022-09-10T01:00:37.618Z,80.95
2022-09-10T01:01:32.645Z,81.18
2022-09-10T01:02:27.672Z,81.03
2022-09-10T01:03:25.614Z,80.95
2022-09-10T01:04:17.760Z,81.00
2022-09-10T01:05:12.804Z,81.04
2022-09-10T01:06:07.812Z,81.14
2022-09-10T01:07:02.829Z,81.20
2022-09-10T01:07:57.913Z,81.18
2022-09-10T01:08:53.356Z,81.08
2022-09-10T01:09:48.598Z,80.92
2022-09-10T01:10:43.785Z,80.89
2022-09-10T01:11:39.627Z,80.91
2022-09-10T01:12:36.115Z,80.93
2022-09-10T01:13:30.640Z,81.05
2022-09-10T01:14:25.770Z,81.13
2022-09-10T01:15:21.095Z,81.20
2022-09-10T01:16:16.956Z,81.18
2022-09-10T01:17:12.139Z,81.20
2022-09-10T01:18:07.277Z,81.00
2022-09-10T01:19:03.665Z,80.91
2022-09-10T01:19:58.943Z,80.75
2022-09-10T01:20:54.787Z,80.64
2022-09-10T01:21:49.985Z,80.69
2022-09-10T01:22:45.126Z,80.43
2022-09-10T01:23:41.106Z,80.72
2022-09-10T01:24:36.410Z,80.78
2022-09-10T01:25:32.350Z,80.77
2022-09-10T01:26:27.512Z,80.75
2022-09-10T01:27:22.792Z,80.80
2022-09-10T01:28:18.671Z,80.73
2022-09-10T01:29:13.843Z,80.76
2022-09-10T01:30:09.235Z,80.69
2022-09-10T01:31:05.596Z,80.65
2022-09-10T01:32:00.626Z,80.61
2022-09-10T01:32:56.581Z,80.42
2022-09-10T01:33:51.696Z,80.33
2022-09-10T01:34:46.970Z,80.38
2022-09-10T01:35:42.709Z,80.56
2022-09-10T01:36:38.302Z,80.53
2022-09-10T01:37:33.748Z,80.12
2022-09-10T01:38:28.980Z,80.22
2022-09-10T01:39:24.412Z,80.02
2022-09-10T01:40:20.130Z,79.85
2022-09-10T01:41:15.399Z,79.84
2022-09-10T01:42:10.590Z,79.88
2022-09-10T01:43:06.949Z,79.85
2022-09-10T01:44:02.251Z,80.00
2022-09-10T01:44:58.229Z,80.24
2022-09-10T01:45:53.363Z,80.28
2022-09-10T01:46:48.545Z,80.37
2022-09-10T01:47:44.247Z,80.47
2022-09-10T01:48:39.570Z,80.56
2022-09-10T01:49:35.205Z,80.67
2022-09-10T01:50:30.485Z,80.82
2022-09-10T01:51:25.646Z,81.03
2022-09-10T01:52:21.495Z,81.16
2022-09-10T01:53:16.664Z,81.23
2022-09-10T01:54:11.918Z,81.25
2022-09-10T01:55:07.223Z,81.18
2022-09-10T01:56:02.947Z,81.18
2022-09-10T01:56:58.313Z,81.20
2022-09-10T01:57:53.603Z,81.19
2022-09-10T01:58:49.342Z,81.23
2022-09-10T01:59:44.641Z,81.20
2022-09-10T02:00:40.812Z,81.03
2022-09-10T02:01:35.637Z,80.85
2022-09-10T02:02:31.325Z,80.93
2022-09-10T02:03:26.905Z,81.01
2022-09-10T02:04:22.186Z,80.96
2022-09-10T02:05:17.385Z,80.86
2022-09-10T02:06:13.750Z,80.84
2022-09-10T02:07:09.181Z,80.89
2022-09-10T02:08:04.888Z,80.97
2022-09-10T02:09:00.131Z,81.00
2022-09-10T02:09:55.320Z,80.97
2022-09-10T02:10:51.213Z,81.08
2022-09-10T02:11:46.369Z,81.03
2022-09-10T02:12:41.628Z,81.00
2022-09-10T02:13:36.872Z,81.08
2022-09-10T02:14:32.014Z,81.08
2022-09-10T02:15:27.248Z,81.08
2022-09-10T02:16:22.545Z,81.22
2022-09-10T02:17:18.926Z,81.32
2022-09-10T02:18:14.068Z,81.43
2022-09-10T02:19:09.591Z,81.43
2022-09-10T02:20:05.177Z,81.57
2022-09-10T02:21:00.310Z,81.62
2022-09-10T02:21:55.499Z,81.33
2022-09-10T02:22:50.645Z,81.09
2022-09-10T02:23:45.813Z,81.01
2022-09-10T02:24:41.078Z,81.15
2022-09-10T02:25:37.548Z,81.27
2022-09-10T02:26:32.657Z,81.45
2022-09-10T02:27:27.874Z,81.48
2022-09-10T02:28:27.194Z,81.35
2022-09-10T02:29:22.207Z,81.43
2022-09-10T02:30:17.481Z,81.45
2022-09-10T02:31:12.849Z,81.49
2022-09-10T02:32:07.871Z,81.51
2022-09-10T02:33:02.898Z,81.73
2022-09-10T02:33:57.928Z,81.94
2022-09-10T02:34:52.924Z,82.10
2022-09-10T02:35:47.968Z,82.30
2022-09-10T02:36:43.076Z,82.44
2022-09-10T02:37:38.224Z,82.65
2022-09-10T02:38:33.248Z,82.95
2022-09-10T02:39:28.430Z,83.26
2022-09-10T02:40:23.576Z,83.42
2022-09-10T02:41:18.733Z,83.42
2022-09-10T02:42:13.760Z,83.40
2022-09-10T02:43:08.806Z,83.42
2022-09-10T02:44:03.789Z,83.40
2022-09-10T02:44:58.785Z,83.41
2022-09-10T02:45:53.876Z,83.41
2022-09-10T02:46:48.847Z,83.36
2022-09-10T02:47:43.856Z,83.22
2022-09-10T02:48:38.949Z,83.09
2022-09-10T02:49:33.932Z,83.02
2022-09-10T02:50:28.927Z,82.95
2022-09-10T02:51:24.047Z,82.97
2022-09-10T02:52:19.465Z,82.85
2022-09-10T02:53:14.630Z,82.97
2022-09-10T02:54:09.745Z,83.08
2022-09-10T02:55:04.886Z,83.09
2022-09-10T02:56:00.317Z,83.08
2022-09-10T02:56:55.414Z,82.98
2022-09-10T02:57:50.594Z,83.01
2022-09-10T02:58:45.742Z,83.00
2022-09-10T02:59:40.896Z,82.98
2022-09-10T03:00:35.905Z,83.08
2022-09-10T03:01:30.937Z,83.14
2022-09-10T03:02:25.982Z,83.19
2022-09-10T03:03:21.125Z,83.47
2022-09-10T03:04:16.147Z,83.55
2022-09-10T03:05:11.480Z,83.60
2022-09-10T03:06:06.481Z,83.59
2022-09-10T03:07:01.695Z,83.51
2022-09-10T03:07:56.532Z,83.32
2022-09-10T03:08:51.600Z,83.24
2022-09-10T03:09:46.579Z,83.11
2022-09-10T03:10:41.702Z,83.14
2022-09-10T03:11:36.740Z,83.09
2022-09-10T03:12:31.752Z,83.17
2022-09-10T03:13:26.880Z,83.28
2022-09-10T03:14:21.907Z,83.35
2022-09-10T03:15:16.945Z,83.45
2022-09-10T03:16:11.994Z,83.71
2022-09-10T03:17:07.019Z,84.02
2022-09-10T03:18:02.046Z,84.50
2022-09-10T03:18:57.089Z,84.63
2022-09-10T03:19:52.214Z,84.99
2022-09-10T03:20:47.421Z,85.23
2022-09-10T03:21:43.264Z,85.35
2022-09-10T03:22:38.444Z,85.35
2022-09-10T03:23:36.642Z,85.29
2022-09-10T03:24:29.425Z,85.38
2022-09-10T03:25:24.996Z,85.61
2022-09-10T03:26:20.218Z,85.73
2022-09-10T03:27:15.907Z,85.85
2022-09-10T03:28:11.282Z,86.14
2022-09-10T03:29:06.555Z,86.25
2022-09-10T03:30:02.276Z,86.39
2022-09-10T03:30:57.553Z,86.39
2022-09-10T03:31:52.778Z,86.21
2022-09-10T03:32:49.169Z,86.46
2022-09-10T03:33:44.313Z,86.60
2022-09-10T03:34:40.151Z,86.86
2022-09-10T03:35:35.393Z,86.80
2022-09-10T03:36:30.563Z,86.76
2022-09-10T03:37:26.410Z,86.81
2022-09-10T03:38:21.613Z,86.74
2022-09-10T03:39:17.452Z,86.64
2022-09-10T03:40:12.619Z,86.66
2022-09-10T03:41:07.957Z,86.39
2022-09-10T03:42:03.790Z,86.32
2022-09-10T03:42:58.977Z,86.49
2022-09-10T03:43:54.228Z,86.49
2022-09-10T03:44:50.618Z,86.68
2022-09-10T03:45:45.974Z,86.73
2022-09-10T03:46:41.777Z,86.70
2022-09-10T03:47:36.928Z,86.95
2022-09-10T03:48:32.166Z,86.90
2022-09-10T03:49:27.867Z,86.85
2022-09-10T03:50:23.265Z,86.90
2022-09-10T03:51:19.118Z,86.93
2022-09-10T03:52:14.130Z,86.99
2022-09-10T03:53:09.520Z,87.04
2022-09-10T03:54:05.376Z,87.33
2022-09-10T03:55:00.654Z,87.22
2022-09-10T03:55:56.215Z,87.31
2022-09-10T03:56:52.066Z,87.48
2022-09-10T03:57:47.355Z,87.65
2022-09-10T03:58:43.217Z,87.49
2022-09-10T03:59:38.385Z,87.28
2022-09-10T04:00:33.845Z,87.37
2022-09-10T04:01:29.495Z,87.32
2022-09-10T04:02:24.666Z,87.75
2022-09-10T04:03:20.369Z,88.10
2022-09-10T04:04:15.759Z,88.10
2022-09-10T04:05:11.284Z,88.17
2022-09-10T04:06:06.865Z,88.42
2022-09-10T04:07:02.006Z,88.61
2022-09-10T04:07:57.262Z,88.45
2022-09-10T04:08:53.500Z,88.69
2022-09-10T04:09:48.801Z,88.79
2022-09-10T04:10:44.611Z,88.77
2022-09-10T04:11:39.872Z,88.77
2022-09-10T04:12:35.161Z,88.92
2022-09-10T04:13:30.873Z,89.22
2022-09-10T04:14:26.050Z,89.49
2022-09-10T04:15:21.891Z,89.52
2022-09-10T04:16:17.207Z,89.48
2022-09-10T04:17:12.348Z,89.38
2022-09-10T04:18:07.606Z,89.43
2022-09-10T04:19:02.926Z,89.55
2022-09-10T04:19:58.636Z,89.66
2022-09-10T04:20:53.930Z,89.47
2022-09-10T04:21:49.803Z,89.33
2022-09-10T04:22:44.949Z,89.24
2022-09-10T04:23:40.226Z,89.29
2022-09-10T04:24:35.977Z,89.41
2022-09-10T04:25:31.266Z,89.56
2022-09-10T04:26:26.459Z,89.25
2022-09-10T04:27:22.687Z,89.16
2022-09-10T04:28:18.024Z,89.31
2022-09-10T04:29:13.800Z,89.38
2022-09-10T04:30:09.048Z,89.57
2022-09-10T04:31:04.194Z,89.71
2022-09-10T04:32:00.225Z,89.79
2022-09-10T04:32:55.264Z,89.84
2022-09-10T04:33:50.667Z,89.94
2022-09-10T04:34:45.762Z,90.00
2022-09-10T04:35:40.939Z,89.90
2022-09-10T04:36:35.994Z,89.94
2022-09-10T04:37:30.981Z,90.31
2022-09-10T04:38:26.052Z,90.37
2022-09-10T04:39:21.118Z,90.50
2022-09-10T04:40:16.212Z,90.59
2022-09-10T04:41:11.298Z,90.28
2022-09-10T04:42:06.396Z,90.12
2022-09-10T04:43:01.606Z,90.23
2022-09-10T04:43:56.678Z,90.42
2022-09-10T04:44:51.760Z,90.42
2022-09-10T04:45:47.082Z,90.45
2022-09-10T04:46:42.027Z,90.49
2022-09-10T04:47:37.089Z,90.79
2022-09-10T04:48:32.157Z,90.63
2022-09-10T04:49:27.216Z,90.75
2022-09-10T04:50:22.338Z,90.80
2022-09-10T04:51:18.084Z,91.06
2022-09-10T04:52:12.437Z,91.07
2022-09-10T04:53:07.432Z,91.15
2022-09-10T04:54:02.559Z,91.24
2022-09-10T04:54:57.550Z,91.33
2022-09-10T04:55:52.797Z,91.21
2022-09-10T04:56:48.078Z,91.17
2022-09-10T04:57:43.231Z,91.18
2022-09-10T04:58:43.517Z,91.24
2022-09-10T04:59:38.629Z,91.25
2022-09-10T05:00:33.972Z,91.15
2022-09-10T05:01:29.267Z,91.13
2022-09-10T05:02:24.629Z,91.17
2022-09-10T05:03:19.974Z,91.11
2022-09-10T05:04:15.264Z,91.02
2022-09-10T05:05:10.796Z,90.95
2022-09-10T05:06:05.857Z,90.98
2022-09-10T05:07:01.151Z,91.01
2022-09-10T05:07:56.478Z,90.96
2022-09-10T05:08:51.782Z,91.03
2022-09-10T05:09:47.071Z,90.98
2022-09-10T05:10:42.422Z,90.84
2022-09-10T05:11:37.863Z,90.79
2022-09-10T05:12:33.074Z,90.64
2022-09-10T05:13:28.384Z,90.54
2022-09-10T05:14:23.829Z,90.54
2022-09-10T05:15:19.147Z,90.53
2022-09-10T05:16:14.361Z,90.67
2022-09-10T05:17:09.634Z,90.72
2022-09-10T05:18:04.957Z,90.71
2022-09-10T05:19:00.256Z,90.67
2022-09-10T05:19:55.530Z,90.58
2022-09-10T05:20:50.858Z,90.38
2022-09-10T05:21:46.146Z,90.38
2022-09-10T05:22:41.431Z,90.25
2022-09-10T05:23:36.762Z,90.36
2022-09-10T05:24:32.078Z,90.49
2022-09-10T05:25:27.526Z,90.56
2022-09-10T05:26:22.695Z,90.65
2022-09-10T05:27:17.997Z,90.61
2022-09-10T05:28:13.321Z,90.42
2022-09-10T05:29:08.611Z,90.32
2022-09-10T05:30:03.892Z,90.54
2022-09-10T05:30:59.245Z,90.57
2022-09-10T05:31:54.572Z,90.60
2022-09-10T05:32:49.900Z,90.61
2022-09-10T05:33:45.184Z,90.52
2022-09-10T05:34:40.484Z,90.58
2022-09-10T05:35:35.838Z,90.56
2022-09-10T05:36:31.122Z,90.53
2022-09-10T05:37:26.541Z,90.61
2022-09-10T05:38:21.716Z,90.67
2022-09-10T05:39:17.011Z,90.62
2022-09-10T05:40:12.405Z,90.57
2022-09-10T05:41:07.429Z,90.58
2022-09-10T05:42:02.442Z,90.54
2022-09-10T05:42:57.476Z,90.44
2022-09-10T05:43:52.538Z,90.27
2022-09-10T05:44:47.581Z,90.21
2022-09-10T05:45:42.717Z,90.07
2022-09-10T05:46:37.748Z,90.01
2022-09-10T05:47:33.927Z,90.03
2022-09-10T05:48:28.999Z,90.12
2022-09-10T05:49:24.084Z,90.06
2022-09-10T05:50:19.363Z,89.98
2022-09-10T05:51:14.319Z,89.80
2022-09-10T05:52:09.277Z,89.97
2022-09-10T05:53:04.357Z,90.10
2022-09-10T05:53:59.436Z,90.10
2022-09-10T05:54:54.546Z,90.23
2022-09-10T05:55:49.642Z,90.33
2022-09-10T05:56:44.781Z,90.43
2022-09-10T05:57:39.877Z,90.51
2022-09-10T05:58:34.965Z,90.50
2022-09-10T05:59:30.052Z,90.31
2022-09-10T06:00:25.139Z,90.27
2022-09-10T06:01:20.373Z,90.24
2022-09-10T06:02:15.700Z,90.22
2022-09-10T06:03:11.361Z,90.20
2022-09-10T06:04:06.372Z,90.12
2022-09-10T06:05:01.833Z,90.08
2022-09-10T06:05:57.359Z,90.16
2022-09-10T06:06:52.691Z,90.25
2022-09-10T06:07:48.242Z,90.22
2022-09-10T06:08:43.679Z,90.23
2022-09-10T06:09:39.091Z,90.20
2022-09-10T06:10:34.521Z,90.40
2022-09-10T06:11:29.901Z,90.40
2022-09-10T06:12:25.325Z,90.33
2022-09-10T06:13:20.730Z,90.39
2022-09-10T06:14:15.710Z,90.73
2022-09-10T06:15:10.700Z,90.63
2022-09-10T06:16:05.912Z,90.59
2022-09-10T06:17:00.833Z,90.62
2022-09-10T06:17:55.964Z,90.61
2022-09-10T06:18:50.936Z,90.60
2022-09-10T06:19:45.977Z,90.53
2022-09-10T06:20:41.362Z,90.51
2022-09-10T06:21:36.130Z,90.41
2022-09-10T06:22:31.128Z,90.50
2022-09-10T06:23:26.129Z,90.52
2022-09-10T06:24:21.116Z,90.46
2022-09-10T06:25:16.119Z,90.44
2022-09-10T06:26:11.237Z,90.47
2022-09-10T06:27:09.067Z,90.27
2022-09-10T06:28:04.470Z,90.30
2022-09-10T06:28:59.885Z,90.29
2022-09-10T06:29:55.445Z,90.31
2022-09-10T06:30:50.858Z,90.21
2022-09-10T06:31:46.216Z,89.86
2022-09-10T06:32:41.503Z,89.67
2022-09-10T06:33:36.901Z,89.56
2022-09-10T06:34:32.323Z,89.59
2022-09-10T06:35:27.733Z,89.44
2022-09-10T06:36:23.170Z,89.42
2022-09-10T06:37:18.581Z,89.42
2022-09-10T06:38:13.994Z,89.44
2022-09-10T06:39:09.413Z,89.34
2022-09-10T06:40:04.985Z,89.50
2022-09-10T06:40:59.929Z,89.65
2022-09-10T06:41:54.987Z,89.58
2022-09-10T06:42:50.010Z,89.35
2022-09-10T06:43:45.125Z,89.10
2022-09-10T06:44:40.124Z,89.21
2022-09-10T06:45:35.196Z,89.43
2022-09-10T06:47:08.418Z,89.30
2022-09-10T06:48:48.063Z,89.11
2022-09-10T06:49:16.333Z,89.24
2022-09-10T06:50:12.328Z,89.28
2022-09-10T06:51:07.730Z,89.15
2022-09-10T06:52:03.178Z,89.20
2022-09-10T06:52:58.709Z,89.36
2022-09-10T06:53:53.945Z,89.37
2022-09-10T06:54:49.526Z,89.46
2022-09-10T06:55:44.821Z,89.40
2022-09-10T06:56:40.359Z,89.38
2022-09-10T06:57:35.660Z,89.41
2022-09-10T06:58:31.040Z,89.13
2022-09-10T06:59:26.462Z,89.16
2022-09-10T07:00:21.906Z,89.27
2022-09-10T07:01:17.399Z,89.30
2022-09-10T07:02:12.829Z,89.42
2022-09-10T07:03:08.794Z,89.43
2022-09-10T07:04:04.182Z,89.48
2022-09-10T07:04:59.796Z,89.35
2022-09-10T07:05:55.050Z,89.17
2022-09-10T07:06:50.471Z,89.15
2022-09-10T07:07:45.861Z,89.02
2022-09-10T07:08:41.231Z,88.86
2022-09-10T07:09:36.662Z,88.92
2022-09-10T07:10:32.091Z,88.87
2022-09-10T07:11:27.610Z,88.98
2022-09-10T07:12:26.968Z,88.75
2022-09-10T07:13:22.272Z,88.24
2022-09-10T07:14:17.770Z,88.27
2022-09-10T07:15:13.148Z,88.22
2022-09-10T07:16:08.573Z,88.37
2022-09-10T07:17:03.845Z,88.43
2022-09-10T07:17:59.389Z,88.11
2022-09-10T07:18:54.664Z,88.23
2022-09-10T07:19:50.324Z,88.35
2022-09-10T07:20:45.477Z,88.20
2022-09-10T07:21:40.908Z,88.13
2022-09-10T07:22:36.477Z,88.22
2022-09-10T07:23:31.727Z,88.31
2022-09-10T07:24:27.209Z,88.13
2022-09-10T07:25:22.757Z,88.25
2022-09-10T07:26:18.015Z,88.43
2022-09-10T07:27:13.392Z,88.29
2022-09-10T07:28:08.826Z,88.29
2022-09-10T07:29:03.916Z,88.29
2022-09-10T07:29:59.056Z,88.27
2022-09-10T07:30:54.129Z,88.07
2022-09-10T07:31:49.152Z,88.18
2022-09-10T07:32:44.173Z,88.21
2022-09-10T07:33:39.304Z,88.15
2022-09-10T07:34:34.310Z,87.97
2022-09-10T07:35:31.769Z,87.57
2022-09-10T07:36:26.763Z,87.55
2022-09-10T07:37:21.765Z,87.57
2022-09-10T07:38:16.816Z,87.30
2022-09-10T07:39:11.810Z,87.17
2022-09-10T07:40:06.942Z,87.22
2022-09-10T07:41:02.024Z,87.34
2022-09-10T07:41:57.036Z,87.27
2022-09-10T07:42:52.034Z,87.21
2022-09-10T07:43:47.054Z,87.04
2022-09-10T07:44:42.038Z,87.14
2022-09-10T07:45:37.091Z,87.18
2022-09-10T07:46:32.128Z,86.96
2022-09-10T07:47:27.178Z,86.99
2022-09-10T07:48:22.211Z,86.81
2022-09-10T07:49:17.242Z,86.80
2022-09-10T07:50:12.260Z,86.64
2022-09-10T07:51:07.348Z,86.45
2022-09-10T07:52:02.383Z,86.25
2022-09-10T07:52:57.419Z,86.27
2022-09-10T07:53:52.500Z,86.30
2022-09-10T07:54:47.555Z,86.21
2022-09-10T07:55:42.599Z,85.97
2022-09-10T07:56:37.705Z,86.08
2022-09-10T07:57:32.766Z,86.30
2022-09-10T07:58:27.787Z,86.22
2022-09-10T07:59:22.869Z,85.83
2022-09-10T08:00:17.886Z,85.32
2022-09-10T08:01:12.984Z,85.27
2022-09-10T08:02:08.042Z,85.39
2022-09-10T08:03:02.926Z,85.67
2022-09-10T08:03:58.132Z,85.76
2022-09-10T08:04:57.234Z,85.63
2022-09-10T08:05:52.283Z,85.73
2022-09-10T08:06:47.383Z,85.63
2022-09-10T08:07:42.406Z,85.67
2022-09-10T08:08:38.505Z,85.87
2022-09-10T08:09:33.823Z,85.75
2022-09-10T08:10:29.272Z,85.62
2022-09-10T08:11:24.840Z,85.63
2022-09-10T08:12:20.188Z,85.69
2022-09-10T08:13:15.786Z,85.35
2022-09-10T08:14:11.325Z,85.26
2022-09-10T08:15:06.664Z,85.41
2022-09-10T08:16:02.307Z,85.53
2022-09-10T08:16:57.760Z,85.53
2022-09-10T08:17:53.226Z,85.32
2022-09-10T08:18:48.628Z,84.85
2022-09-10T08:19:44.092Z,84.53
2022-09-10T08:20:39.828Z,84.22
2022-09-10T08:21:34.870Z,84.38
2022-09-10T08:22:29.952Z,84.13
2022-09-10T08:23:25.039Z,84.11
2022-09-10T08:24:20.121Z,83.99
2022-09-10T08:25:15.134Z,83.93
2022-09-10T08:26:10.160Z,83.71
2022-09-10T08:27:05.168Z,83.95
2022-09-10T08:28:02.729Z,84.20
2022-09-10T08:28:57.778Z,84.32
2022-09-10T08:29:52.811Z,84.36
2022-09-10T08:30:47.965Z,84.34
2022-09-10T08:31:42.810Z,84.38
2022-09-10T08:32:37.797Z,84.36
2022-09-10T08:33:32.938Z,84.32
2022-09-10T08:34:27.924Z,84.18
2022-09-10T08:35:23.025Z,84.07
2022-09-10T08:36:18.084Z,83.89
2022-09-10T08:37:13.154Z,83.70
2022-09-10T08:38:08.228Z,83.48
2022-09-10T08:39:08.112Z,83.49
2022-09-10T08:39:59.728Z,83.43
2022-09-10T08:40:53.953Z,83.12
2022-09-10T08:41:49.462Z,82.88
2022-09-10T08:42:44.898Z,82.84
2022-09-10T08:43:40.403Z,82.75
2022-09-10T08:44:35.697Z,82.66
2022-09-10T08:45:31.268Z,82.54
2022-09-10T08:46:26.734Z,82.36
2022-09-10T08:47:22.320Z,82.27
2022-09-10T08:48:17.655Z,82.48
2022-09-10T08:49:13.521Z,82.56
2022-09-10T08:50:09.101Z,82.51
2022-09-10T08:51:07.959Z,82.56
2022-09-10T08:52:03.444Z,82.47
2022-09-10T08:52:59.060Z,82.11
2022-09-10T08:53:54.560Z,82.07
2022-09-10T08:54:49.956Z,82.14
2022-09-10T08:55:48.788Z,81.79
2022-09-10T08:56:40.992Z,81.66
2022-09-10T08:57:36.579Z,81.53
2022-09-10T08:58:31.916Z,81.11
2022-09-10T08:59:27.380Z,81.00
2022-09-10T09:00:22.837Z,81.02
2022-09-10T09:01:18.431Z,80.65
2022-09-10T09:02:26.291Z,80.38
2022-09-10T09:03:10.362Z,80.08
2022-09-10T09:04:06.290Z,79.89
2022-09-10T09:05:00.122Z,79.25
2022-09-10T09:05:55.645Z,79.47
2022-09-10T09:06:51.029Z,79.78
2022-09-10T09:07:46.559Z,79.02
2022-09-10T09:08:42.172Z,78.32
2022-09-10T09:09:37.645Z,78.34
2022-09-10T09:10:33.093Z,78.31
2022-09-10T09:11:28.703Z,78.29
2022-09-10T09:12:24.196Z,78.53
2022-09-10T09:13:22.731Z,78.26
2022-09-10T09:14:18.148Z,78.06
2022-09-10T09:15:13.758Z,77.77
2022-09-10T09:16:09.307Z,77.30
2022-09-10T09:17:04.755Z,77.60
2022-09-10T09:18:00.257Z,77.70
2022-09-10T09:18:55.852Z,77.43
2022-09-10T09:19:51.331Z,77.14
2022-09-10T09:20:46.754Z,77.17
2022-09-10T09:21:43.117Z,76.82
2022-09-10T09:22:40.015Z,77.17
2022-09-10T09:23:32.325Z,77.62
2022-09-10T09:24:27.533Z,77.70
2022-09-10T09:25:22.594Z,77.30
2022-09-10T09:26:17.725Z,77.08
2022-09-10T09:27:12.789Z,77.19
2022-09-10T09:28:07.850Z,77.19
2022-09-10T09:29:03.046Z,77.41
2022-09-10T09:29:58.091Z,77.79
2022-09-10T09:30:53.148Z,78.18
2022-09-10T09:31:48.242Z,78.33
2022-09-10T09:32:43.280Z,78.48
2022-09-10T09:33:38.466Z,78.27
2022-09-10T09:34:33.937Z,77.49
2022-09-10T09:35:29.460Z,77.83
2022-09-10T09:36:28.476Z,77.35
2022-09-10T09:37:23.906Z,76.70
2022-09-10T09:38:19.440Z,76.38
2022-09-10T09:39:15.055Z,76.07
2022-09-10T09:40:10.483Z,75.67
2022-09-10T09:41:05.996Z,75.70
2022-09-10T09:42:01.530Z,75.48
2022-09-10T09:42:56.937Z,75.87
2022-09-10T09:43:52.329Z,74.93
2022-09-10T09:44:47.855Z,73.93
2022-09-10T09:45:43.468Z,72.56
2022-09-10T09:46:38.954Z,72.15
2022-09-10T09:47:34.502Z,72.45
2022-09-10T09:48:29.980Z,73.01
2022-09-10T09:49:25.468Z,73.09
2022-09-10T09:50:20.988Z,72.26
2022-09-10T09:51:16.473Z,72.71
2022-09-10T09:52:11.999Z,73.69
2022-09-10T09:53:07.535Z,73.57
2022-09-10T09:54:34.525Z,72.94
2022-09-10T09:55:15.732Z,72.95
2022-09-10T09:55:54.251Z,72.60
2022-09-10T09:56:48.329Z,73.40
2022-09-10T09:57:43.411Z,73.94
2022-09-10T09:58:38.620Z,74.53
2022-09-10T09:59:33.543Z,74.70
2022-09-10T10:00:28.637Z,75.04
2022-09-10T10:01:24.015Z,75.64
2022-09-10T10:02:19.419Z,75.79
2022-09-10T10:03:14.726Z,76.02
2022-09-10T10:04:10.278Z,76.49
2022-09-10T10:05:05.677Z,76.78
2022-09-10T10:06:00.788Z,76.78
2022-09-10T10:06:55.907Z,76.94
2022-09-10T10:07:51.057Z,77.07
2022-09-10T10:08:46.058Z,76.74
2022-09-10T10:09:41.071Z,77.14
2022-09-10T10:10:36.111Z,77.41
2022-09-10T10:11:31.112Z,77.60
2022-09-10T10:12:28.288Z,78.12
2022-09-10T10:13:23.388Z,78.35
2022-09-10T10:14:18.542Z,78.40
2022-09-10T10:15:13.531Z,78.32
2022-09-10T10:16:08.637Z,78.25
2022-09-10T10:17:03.696Z,79.20
2022-09-10T10:17:58.752Z,80.49
2022-09-10T10:18:53.779Z,81.44
2022-09-10T10:19:48.985Z,83.18
2022-09-10T10:20:44.534Z,83.87
2022-09-10T10:21:39.949Z,85.01
2022-09-10T10:22:35.445Z,85.66
2022-09-10T10:23:31.321Z,86.21
2022-09-10T10:24:26.598Z,86.95
2022-09-10T10:25:21.925Z,86.97
2022-09-10T10:26:17.426Z,87.02
2022-09-10T10:27:12.853Z,86.69
2022-09-10T10:28:08.371Z,86.76
2022-09-10T10:29:03.732Z,86.56
2022-09-10T10:29:59.248Z,85.34
2022-09-10T10:30:54.849Z,84.31
2022-09-10T10:31:50.221Z,84.38
2022-09-10T10:32:45.772Z,84.41
2022-09-10T10:33:41.525Z,83.51
2022-09-10T10:34:36.891Z,82.95
2022-09-10T10:35:35.670Z,83.16
2022-09-10T10:36:31.095Z,83.48
2022-09-10T10:37:26.471Z,84.35
2022-09-10T10:38:21.898Z,83.27
2022-09-10T10:39:17.421Z,83.56
2022-09-10T10:40:12.933Z,84.13
2022-09-10T10:41:08.339Z,84.02
2022-09-10T10:42:03.754Z,83.95
2022-09-10T10:42:59.259Z,84.25
2022-09-10T10:43:54.970Z,83.58
2022-09-10T10:44:50.369Z,83.35
2022-09-10T10:45:45.727Z,83.11
2022-09-10T10:46:41.636Z,81.94
2022-09-10T10:47:37.148Z,80.98
2022-09-10T10:48:32.557Z,80.60
2022-09-10T10:49:27.626Z,81.34
2022-09-10T10:50:22.748Z,79.96
2022-09-10T10:51:17.826Z,78.47
2022-09-10T10:52:12.929Z,75.86
2022-09-10T10:53:08.166Z,77.10
2022-09-10T10:54:03.289Z,76.03
2022-09-10T10:54:58.337Z,76.36
2022-09-10T10:55:55.335Z,74.00
2022-09-10T10:56:50.841Z,72.76
2022-09-10T10:57:46.305Z,73.70
2022-09-10T10:58:41.645Z,72.87
2022-09-10T10:59:37.397Z,73.55
2022-09-10T11:00:32.927Z,74.34
2022-09-10T11:01:28.481Z,74.67
2022-09-10T11:02:23.873Z,75.07
2022-09-10T11:03:19.469Z,76.18
2022-09-10T11:04:14.811Z,76.55
2022-09-10T11:05:10.287Z,78.36
2022-09-10T11:06:05.757Z,79.58
2022-09-10T11:07:01.195Z,79.40
2022-09-10T11:07:56.747Z,79.93
2022-09-10T11:08:52.052Z,80.87
2022-09-10T11:09:47.526Z,80.94
2022-09-10T11:10:43.070Z,80.71
2022-09-10T11:11:38.505Z,81.38
2022-09-10T11:12:33.995Z,81.84
2022-09-10T11:13:29.621Z,82.06
2022-09-10T11:14:25.107Z,81.48
2022-09-10T11:15:20.728Z,81.12
2022-09-10T11:16:16.280Z,80.71
2022-09-10T11:17:11.696Z,80.75
2022-09-10T11:18:06.801Z,80.32
2022-09-10T11:19:01.915Z,80.07
2022-09-10T11:20:24.214Z,79.61
2022-09-10T11:20:54.392Z,79.66
2022-09-10T11:21:48.503Z,78.97
2022-09-10T11:22:43.587Z,79.59
2022-09-10T11:23:38.661Z,79.75
2022-09-10T11:24:34.782Z,80.40
2022-09-10T11:25:30.246Z,80.20
2022-09-10T11:26:25.750Z,80.57
2022-09-10T11:27:21.218Z,80.44
2022-09-10T11:28:16.796Z,80.47
2022-09-10T11:29:12.301Z,80.42
2022-09-10T11:30:07.804Z,80.22
2022-09-10T11:31:03.285Z,79.92
2022-09-10T11:31:58.619Z,80.01
2022-09-10T11:32:54.079Z,80.11
2022-09-10T11:33:49.697Z,80.90
2022-09-10T11:34:45.043Z,81.46
2022-09-10T11:35:40.468Z,81.78
2022-09-10T11:36:35.958Z,81.49
2022-09-10T11:37:30.966Z,80.91
2022-09-10T11:38:26.072Z,80.66
2022-09-10T11:39:21.087Z,80.60
2022-09-10T11:40:16.132Z,80.47
2022-09-10T11:41:11.347Z,80.47
2022-09-10T11:42:06.240Z,80.35
2022-09-10T11:43:01.229Z,80.18
2022-09-10T11:43:58.416Z,80.45
2022-09-10T11:44:53.446Z,80.33
2022-09-10T11:45:48.566Z,79.98
2022-09-10T11:46:43.577Z,80.57
2022-09-10T11:47:38.566Z,80.28
2022-09-10T11:48:33.701Z,80.33
2022-09-10T11:49:28.711Z,80.36
2022-09-10T11:50:23.832Z,81.42
2022-09-10T11:51:18.881Z,81.74
2022-09-10T11:52:13.885Z,82.40
2022-09-10T11:53:09.005Z,82.41
2022-09-10T11:54:04.044Z,83.56